createdAt,value
2022-08-17T00:00:04.091Z,8.38
2022-08-17T00:03:06.373Z,9.18
2022-08-17T00:05:40.796Z,8.35
2022-08-17T00:08:08.743Z,9.52
2022-08-17T00:10:36.648Z,8.32
2022-08-17T00:13:23.193Z,9.63
2022-08-17T00:15:51.414Z,7.97
2022-08-17T00:19:01.315Z,9.63
2022-08-17T00:21:10.840Z,9.43
2022-08-17T00:23:47.766Z,9.13
2022-08-17T00:26:38.782Z,8.88
2022-08-17T00:29:08.226Z,8.00
2022-08-17T00:31:36.810Z,9.80
2022-08-17T00:34:06.320Z,10.20
2022-08-17T00:36:33.696Z,9.97
2022-08-17T00:39:01.021Z,9.05
2022-08-17T00:41:29.497Z,9.73
2022-08-17T00:44:05.536Z,9.70
2022-08-17T00:46:41.000Z,9.77
2022-08-17T00:49:10.896Z,10.13
2022-08-17T00:51:59.757Z,9.75
2022-08-17T00:54:42.541Z,9.07
2022-08-17T00:57:21.614Z,9.52
2022-08-17T01:00:01.950Z,9.45
2022-08-17T01:02:42.093Z,9.70
2022-08-17T01:05:20.628Z,10.07
2022-08-17T01:07:52.955Z,10.98
2022-08-17T01:10:59.305Z,9.45
2022-08-17T01:13:15.953Z,9.07
2022-08-17T01:15:57.415Z,9.25
2022-08-17T01:18:26.957Z,10.30
2022-08-17T01:20:58.933Z,10.17
2022-08-17T01:23:28.936Z,10.05
2022-08-17T01:25:59.978Z,10.93
2022-08-17T01:28:52.785Z,9.70
2022-08-17T01:31:20.334Z,9.95
2022-08-17T01:33:47.760Z,10.57
2022-08-17T01:36:15.267Z,10.20
2022-08-17T01:38:42.792Z,12.63
2022-08-17T01:41:15.639Z,11.20
2022-08-17T01:43:59.138Z,10.45
2022-08-17T01:46:33.091Z,9.45
2022-08-17T01:49:05.326Z,10.52
2022-08-17T01:51:33.719Z,10.38
2022-08-17T01:54:08.567Z,10.63
2022-08-17T01:56:43.828Z,10.93
2022-08-17T01:59:17.034Z,10.80
2022-08-17T02:01:45.763Z,9.47
2022-08-17T02:04:13.960Z,10.10
2022-08-17T02:06:52.632Z,11.90
2022-08-17T02:09:25.953Z,10.80
2022-08-17T02:11:59.810Z,10.60
2022-08-17T02:14:47.269Z,11.63
2022-08-17T02:17:14.588Z,11.57
2022-08-17T02:19:41.999Z,10.48
2022-08-17T02:22:10.251Z,10.98
2022-08-17T02:25:00.288Z,10.05
2022-08-17T02:27:26.764Z,11.63
2022-08-17T02:29:54.219Z,12.15
2022-08-17T02:32:27.693Z,11.90
2022-08-17T02:34:58.166Z,11.15
2022-08-17T02:37:30.456Z,10.98
2022-08-17T02:39:59.585Z,10.32
2022-08-17T02:42:40.562Z,11.45
2022-08-17T02:45:16.615Z,11.18
2022-08-17T02:47:44.745Z,10.38
2022-08-17T02:50:16.109Z,11.25
2022-08-17T02:52:47.492Z,10.65
2022-08-17T02:55:41.716Z,11.35
2022-08-17T02:58:10.990Z,11.90
2022-08-17T03:00:46.355Z,9.82
2022-08-17T03:03:18.768Z,10.02
2022-08-17T03:05:53.550Z,10.50
2022-08-17T03:08:20.964Z,10.80
2022-08-17T03:10:48.814Z,10.50
2022-08-17T03:13:16.951Z,10.45
2022-08-17T03:15:46.207Z,10.90
2022-08-17T03:18:24.346Z,10.95
2022-08-17T03:20:56.998Z,10.83
2022-08-17T03:23:25.744Z,11.85
2022-08-17T03:25:54.618Z,12.07
2022-08-17T03:28:22.989Z,11.43
2022-08-17T03:30:51.429Z,10.50
2022-08-17T03:33:19.905Z,10.60
2022-08-17T03:35:47.882Z,10.45
2022-08-17T03:38:17.411Z,10.60
2022-08-17T03:40:56.328Z,9.97
2022-08-17T03:43:32.996Z,11.35
2022-08-17T03:46:28.233Z,10.75
2022-08-17T03:49:19.900Z,11.18
2022-08-17T03:52:06.136Z,11.40
2022-08-17T03:54:52.096Z,11.38
2022-08-17T03:57:19.951Z,11.15
2022-08-17T03:59:47.917Z,12.00
2022-08-17T04:02:31.206Z,11.85
2022-08-17T04:04:59.181Z,10.07
2022-08-17T04:07:30.083Z,11.60
2022-08-17T04:09:58.330Z,10.73
2022-08-17T04:12:30.997Z,11.07
2022-08-17T04:14:59.169Z,10.20
2022-08-17T04:17:29.284Z,11.30
2022-08-17T04:19:57.662Z,12.25
2022-08-17T04:22:31.377Z,10.07
2022-08-17T04:25:13.852Z,9.23
2022-08-17T04:27:41.312Z,9.05
2022-08-17T04:30:09.763Z,8.93
2022-08-17T04:33:06.482Z,10.35
2022-08-17T04:35:49.197Z,10.05
2022-08-17T04:38:24.541Z,9.63
2022-08-17T04:41:11.392Z,9.45
2022-08-17T04:43:41.515Z,9.15
2022-08-17T04:46:17.557Z,8.55
2022-08-17T04:48:49.407Z,8.77
2022-08-17T04:51:23.339Z,8.75
2022-08-17T04:53:55.433Z,9.15
2022-08-17T04:56:25.942Z,8.85
2022-08-17T04:58:58.583Z,11.13
2022-08-17T05:01:28.952Z,9.43
2022-08-17T05:06:49.755Z,9.73
2022-08-17T05:09:18.347Z,9.48
2022-08-17T05:11:46.722Z,9.75
2022-08-17T05:14:14.857Z,9.38
2022-08-17T05:16:42.221Z,9.80
2022-08-17T05:19:09.616Z,9.32
2022-08-17T05:21:36.980Z,9.57
2022-08-17T05:24:06.044Z,9.85
2022-08-17T05:26:52.009Z,9.38
2022-08-17T05:29:19.693Z,8.90
2022-08-17T05:31:47.023Z,9.70
2022-08-17T05:34:14.723Z,10.48
2022-08-17T05:36:44.508Z,9.30
2022-08-17T05:39:16.792Z,9.27
2022-08-17T05:41:48.145Z,9.95
2022-08-17T05:44:17.185Z,9.27
2022-08-17T05:46:51.778Z,9.45
2022-08-17T05:49:27.372Z,9.50
2022-08-17T05:52:09.449Z,9.38
2022-08-17T05:55:22.360Z,9.38
2022-08-17T05:58:00.197Z,8.40
2022-08-17T06:00:42.135Z,9.27
2022-08-17T06:03:35.093Z,9.20
2022-08-17T06:06:44.854Z,8.57
2022-08-17T06:10:00.384Z,8.13
2022-08-17T06:12:43.982Z,7.70
2022-08-17T06:15:39.020Z,9.57
2022-08-17T06:18:13.717Z,9.50
2022-08-17T06:20:57.595Z,9.35
2022-08-17T06:23:37.646Z,8.50
2022-08-17T06:26:17.561Z,8.57
2022-08-17T06:31:31.922Z,8.68
2022-08-17T06:34:04.235Z,8.60
2022-08-17T06:37:05.684Z,8.20
2022-08-17T06:39:43.793Z,8.63
2022-08-17T06:43:02.648Z,8.70
2022-08-17T06:45:13.737Z,7.68
2022-08-17T06:48:09.973Z,9.20
2022-08-17T06:50:47.820Z,7.93
2022-08-17T06:53:36.869Z,7.40
2022-08-17T06:56:57.460Z,7.35
2022-08-17T06:59:55.477Z,7.65
2022-08-17T07:02:52.015Z,7.38
2022-08-17T07:05:44.342Z,7.45
2022-08-17T07:08:43.373Z,6.43
2022-08-17T07:11:17.231Z,7.25
2022-08-17T07:14:41.451Z,6.90
2022-08-17T07:17:16.014Z,6.80
2022-08-17T07:19:47.576Z,8.18
2022-08-17T07:22:57.742Z,7.10
2022-08-17T07:25:21.923Z,7.93
2022-08-17T07:27:56.015Z,7.75
2022-08-17T07:30:49.002Z,7.40
2022-08-17T07:33:30.321Z,7.05
2022-08-17T07:35:58.457Z,6.57
2022-08-17T07:38:29.764Z,6.53
2022-08-17T07:41:02.203Z,7.20
2022-08-17T07:43:39.586Z,7.30
2022-08-17T07:46:53.772Z,7.28
2022-08-17T07:49:40.744Z,7.47
2022-08-17T07:52:51.998Z,6.57
2022-08-17T07:55:35.045Z,7.25
2022-08-17T07:58:03.585Z,7.20
2022-08-17T08:00:33.053Z,7.07
2022-08-17T08:03:14.872Z,7.53
2022-08-17T08:05:56.855Z,7.93
2022-08-17T08:08:50.539Z,6.88
2022-08-17T08:11:35.841Z,7.57
2022-08-17T08:14:33.703Z,7.35
2022-08-17T08:17:06.702Z,7.57
2022-08-17T08:19:36.768Z,6.72
2022-08-17T08:22:18.639Z,6.93
2022-08-17T08:24:56.338Z,7.93
2022-08-17T08:27:53.413Z,6.78
2022-08-17T08:30:22.130Z,7.40
2022-08-17T08:33:22.732Z,7.93
2022-08-17T08:36:07.778Z,7.88
2022-08-17T08:38:50.156Z,8.13
2022-08-17T08:41:44.919Z,7.40
2022-08-17T08:45:01.340Z,7.65
2022-08-17T08:47:51.921Z,7.10
2022-08-17T08:50:49.538Z,8.52
2022-08-17T08:53:44.370Z,8.25
2022-08-17T08:57:19.783Z,7.60
2022-08-17T09:00:13.390Z,8.40
2022-08-17T09:03:20.215Z,7.53
2022-08-17T09:06:32.488Z,8.07
2022-08-17T09:09:22.671Z,7.93
2022-08-17T09:12:17.035Z,7.30
2022-08-17T09:15:13.757Z,7.38
2022-08-17T09:19:00.309Z,8.05
2022-08-17T09:21:54.586Z,7.93
2022-08-17T09:25:23.472Z,7.82
2022-08-17T09:28:06.385Z,7.68
2022-08-17T09:30:55.358Z,9.10
2022-08-17T09:33:27.805Z,8.20
2022-08-17T09:36:05.587Z,7.65
2022-08-17T09:39:01.928Z,8.10
2022-08-17T09:42:07.011Z,7.68
2022-08-17T09:44:36.844Z,8.23
2022-08-17T09:47:26.565Z,8.07
2022-08-17T09:50:06.120Z,8.65
2022-08-17T09:52:33.563Z,8.77
2022-08-17T09:55:01.876Z,8.05
2022-08-17T10:00:29.443Z,8.68
2022-08-17T10:03:51.039Z,8.18
2022-08-17T10:06:37.980Z,8.40
2022-08-17T10:09:22.163Z,8.60
2022-08-17T10:12:20.427Z,9.50
2022-08-17T10:15:07.670Z,9.30
2022-08-17T10:18:07.479Z,9.90
2022-08-17T10:21:14.507Z,9.57
2022-08-17T10:24:02.789Z,8.32
2022-08-17T10:29:49.083Z,8.75
2022-08-17T10:32:37.965Z,8.57
2022-08-17T10:35:17.205Z,8.48
2022-08-17T10:38:24.568Z,8.30
2022-08-17T10:41:29.806Z,8.07
2022-08-17T10:44:38.017Z,7.55
2022-08-17T10:47:14.531Z,8.63
2022-08-17T10:49:54.060Z,8.30
2022-08-17T10:52:26.182Z,8.98
2022-08-17T10:54:58.336Z,7.97
2022-08-17T10:57:40.862Z,8.82
2022-08-17T11:00:37.920Z,7.85
2022-08-17T11:03:23.840Z,8.85
2022-08-17T11:06:22.587Z,8.80
2022-08-17T11:09:29.566Z,9.35
2022-08-17T11:12:54.638Z,9.25
2022-08-17T11:15:28.770Z,8.15
2022-08-17T11:18:26.654Z,8.77
2022-08-17T11:21:32.246Z,9.13
2022-08-17T11:24:17.712Z,8.98
2022-08-17T11:27:04.158Z,8.88
2022-08-17T11:29:52.978Z,8.60
2022-08-17T11:32:54.554Z,8.77
2022-08-17T11:35:22.277Z,8.52
2022-08-17T11:38:17.086Z,9.38
2022-08-17T11:40:53.373Z,8.63
2022-08-17T11:43:43.512Z,7.75
2022-08-17T11:46:51.726Z,7.05
2022-08-17T11:49:57.767Z,8.02
2022-08-17T11:52:45.948Z,7.03
2022-08-17T11:55:39.377Z,7.22
2022-08-17T11:58:29.642Z,7.68
2022-08-17T12:01:07.485Z,7.70
2022-08-17T12:03:34.636Z,7.20
2022-08-17T12:06:23.063Z,6.88
2022-08-17T12:09:25.172Z,6.93
2022-08-17T12:12:14.289Z,6.45
2022-08-17T12:15:12.929Z,7.35
2022-08-17T12:17:43.021Z,6.85
2022-08-17T12:20:30.836Z,6.75
2022-08-17T12:23:15.160Z,6.25
2022-08-17T12:26:10.112Z,6.22
2022-08-17T12:28:44.353Z,5.55
2022-08-17T12:31:27.600Z,5.68
2022-08-17T12:33:56.227Z,7.35
2022-08-17T12:36:26.546Z,7.43
2022-08-17T12:39:13.018Z,7.13
2022-08-17T12:41:50.740Z,6.57
2022-08-17T12:44:25.676Z,7.57
2022-08-17T12:47:22.613Z,7.80
2022-08-17T12:50:03.878Z,7.97
2022-08-17T12:52:33.223Z,7.07
2022-08-17T12:55:21.291Z,7.82
2022-08-17T12:57:59.622Z,7.57
2022-08-17T13:00:47.536Z,7.40
2022-08-17T13:03:23.182Z,6.93
2022-08-17T13:06:00.849Z,7.22
2022-08-17T13:08:38.001Z,7.68
2022-08-17T13:11:14.667Z,7.25
2022-08-17T13:13:47.210Z,7.03
2022-08-17T13:16:17.012Z,7.65
2022-08-17T13:19:39.850Z,7.78
2022-08-17T13:22:12.926Z,6.57
2022-08-17T13:24:56.477Z,5.82
2022-08-17T13:27:27.552Z,6.47
2022-08-17T13:30:07.395Z,6.07
2022-08-17T13:32:43.721Z,6.95
2022-08-17T13:35:47.672Z,6.68
2022-08-17T13:38:45.671Z,6.85
2022-08-17T13:41:35.500Z,7.20
2022-08-17T13:44:23.068Z,6.88
2022-08-17T13:46:56.946Z,7.05
2022-08-17T13:49:24.938Z,7.30
2022-08-17T13:52:32.146Z,6.90
2022-08-17T13:55:15.810Z,7.43
2022-08-17T13:58:06.529Z,7.35
2022-08-17T14:00:36.919Z,7.40
2022-08-17T14:03:05.444Z,7.82
2022-08-17T14:05:33.891Z,7.47
2022-08-17T14:08:06.852Z,7.75
2022-08-17T14:10:36.614Z,8.05
2022-08-17T14:13:05.902Z,7.32
2022-08-17T14:15:55.580Z,7.65
2022-08-17T14:18:34.299Z,7.85
2022-08-17T14:21:10.345Z,6.45
2022-08-17T14:23:38.115Z,7.82
2022-08-17T14:26:06.020Z,7.53
2022-08-17T14:28:33.494Z,7.65
2022-08-17T14:31:03.843Z,8.45
2022-08-17T14:33:31.281Z,7.82
2022-08-17T14:35:58.816Z,7.22
2022-08-17T14:38:26.310Z,8.48
2022-08-17T14:40:54.302Z,7.88
2022-08-17T14:43:21.801Z,9.02
2022-08-17T14:45:49.299Z,8.27
2022-08-17T14:48:16.728Z,7.65
2022-08-17T14:50:44.481Z,7.57
2022-08-17T14:53:15.430Z,7.82
2022-08-17T14:55:45.797Z,8.15
2022-08-17T14:58:15.066Z,8.23
2022-08-17T15:00:43.762Z,7.72
2022-08-17T15:03:11.842Z,7.35
2022-08-17T15:05:40.465Z,7.68
2022-08-17T15:08:08.017Z,6.95
2022-08-17T15:10:36.421Z,6.75
2022-08-17T15:13:04.957Z,7.47
2022-08-17T15:15:32.433Z,8.10
2022-08-17T15:18:00.150Z,7.50
2022-08-17T15:20:30.021Z,6.50
2022-08-17T15:22:59.437Z,6.88
2022-08-17T15:25:31.902Z,7.72
2022-08-17T15:28:00.663Z,7.25
2022-08-17T15:30:29.181Z,7.13
2022-08-17T15:32:59.098Z,6.40
2022-08-17T15:35:33.831Z,6.60
2022-08-17T15:38:11.273Z,7.80
2022-08-17T15:40:46.910Z,7.30
2022-08-17T15:43:24.773Z,7.40
2022-08-17T15:46:17.698Z,7.55
2022-08-17T15:48:49.755Z,7.30
2022-08-17T15:51:31.063Z,6.85
2022-08-17T15:54:18.846Z,8.02
2022-08-17T15:56:50.770Z,6.85
2022-08-17T15:59:18.454Z,7.38
2022-08-17T16:03:13.615Z,7.50
2022-08-17T16:04:33.379Z,7.35
2022-08-17T16:07:00.848Z,7.57
2022-08-17T16:09:28.793Z,7.50
2022-08-17T16:11:56.544Z,7.13
2022-08-17T16:14:30.338Z,7.30
2022-08-17T16:17:04.289Z,8.10
2022-08-17T16:19:33.189Z,7.65
2022-08-17T16:22:00.927Z,7.32
2022-08-17T16:24:28.585Z,7.55
2022-08-17T16:26:56.162Z,7.50
2022-08-17T16:29:23.624Z,8.07
2022-08-17T16:31:51.445Z,7.78
2022-08-17T16:34:19.570Z,8.13
2022-08-17T16:36:54.762Z,7.55
2022-08-17T16:39:29.290Z,8.15
2022-08-17T16:41:57.900Z,7.38
2022-08-17T16:44:27.551Z,7.90
2022-08-17T16:46:54.856Z,7.30
2022-08-17T16:49:35.509Z,6.95
2022-08-17T16:52:10.445Z,7.07
2022-08-17T16:54:43.602Z,7.25
2022-08-17T16:57:13.603Z,7.88
2022-08-17T16:59:44.967Z,7.82
2022-08-17T17:02:29.627Z,6.47
2022-08-17T17:05:06.504Z,7.15
2022-08-17T17:07:51.140Z,7.88
2022-08-17T17:10:24.831Z,8.00
2022-08-17T17:13:01.858Z,7.88
2022-08-17T17:15:53.590Z,6.82
2022-08-17T17:18:37.915Z,7.32
2022-08-17T17:21:10.016Z,7.28
2022-08-17T17:23:57.748Z,7.85
2022-08-17T17:26:48.397Z,6.97
2022-08-17T17:29:51.362Z,7.53
2022-08-17T17:33:19.250Z,8.10
2022-08-17T17:36:39.946Z,6.85
2022-08-17T17:39:18.956Z,8.00
2022-08-17T17:41:51.824Z,6.80
2022-08-17T17:44:30.281Z,7.40
2022-08-17T17:47:00.570Z,6.72
2022-08-17T17:49:38.262Z,7.53
2022-08-17T17:52:32.884Z,7.80
2022-08-17T17:55:54.979Z,7.80
2022-08-17T17:59:43.330Z,7.22
2022-08-17T18:02:51.503Z,7.65
2022-08-17T18:05:37.452Z,7.88
2022-08-17T18:08:34.307Z,8.13
2022-08-17T18:11:08.001Z,8.77
2022-08-17T18:14:18.597Z,9.35
2022-08-17T18:16:51.171Z,8.77
2022-08-17T18:19:20.794Z,11.27
2022-08-17T18:22:07.216Z,12.32
2022-08-17T18:24:43.254Z,9.73
2022-08-17T18:27:23.397Z,9.63
2022-08-17T18:29:54.249Z,11.07
2022-08-17T18:32:43.083Z,10.95
2022-08-17T18:35:10.401Z,11.50
2022-08-17T18:37:52.778Z,10.98
2022-08-17T18:40:20.236Z,9.93
2022-08-17T18:42:50.490Z,9.70
2022-08-17T18:48:48.810Z,9.10
2022-08-17T18:51:41.656Z,9.80
2022-08-17T18:54:21.997Z,9.77
2022-08-17T18:56:56.558Z,9.52
2022-08-17T18:59:32.141Z,9.18
2022-08-17T19:02:24.219Z,9.23
2022-08-17T19:05:08.028Z,9.57
2022-08-17T19:07:46.670Z,8.63
2022-08-17T19:10:21.963Z,9.43
2022-08-17T19:13:23.994Z,8.88
2022-08-17T19:16:18.091Z,9.10
2022-08-17T19:19:19.666Z,8.32
2022-08-17T19:22:02.387Z,8.32
2022-08-17T19:24:33.664Z,9.27
2022-08-17T19:27:18.239Z,9.32
2022-08-17T19:30:07.155Z,8.77
2022-08-17T19:32:36.148Z,9.95
2022-08-17T19:35:07.269Z,9.15
2022-08-17T19:37:51.600Z,9.68
2022-08-17T19:41:01.851Z,8.70
2022-08-17T19:43:44.151Z,9.43
2022-08-17T19:46:19.307Z,9.40
2022-08-17T19:48:59.032Z,9.45
2022-08-17T19:51:50.772Z,9.20
2022-08-17T19:54:55.499Z,9.32
2022-08-17T19:58:03.143Z,9.75
2022-08-17T20:00:34.339Z,10.30
2022-08-17T20:03:16.628Z,9.50
2022-08-17T20:06:12.658Z,9.40
2022-08-17T20:08:48.017Z,8.52
2022-08-17T20:11:41.320Z,9.77
2022-08-17T20:14:18.882Z,9.77
2022-08-17T20:16:46.534Z,9.68
2022-08-17T20:19:23.096Z,9.40
2022-08-17T20:22:05.028Z,9.02
2022-08-17T20:24:44.598Z,9.20
2022-08-17T20:27:34.548Z,9.73
2022-08-17T20:30:10.556Z,8.93
2022-08-17T20:32:53.051Z,9.43
2022-08-17T20:35:31.974Z,9.15
2022-08-17T20:38:13.622Z,9.20
2022-08-17T20:40:57.578Z,10.30
2022-08-17T20:43:33.866Z,9.75
2022-08-17T20:46:19.146Z,9.45
2022-08-17T20:48:52.358Z,10.20
2022-08-17T20:51:39.576Z,9.77
2022-08-17T20:54:26.925Z,9.77
2022-08-17T20:56:58.062Z,10.02
2022-08-17T20:59:25.983Z,10.18
2022-08-17T21:02:18.829Z,9.70
2022-08-17T21:04:54.617Z,10.43
2022-08-17T21:07:54.066Z,9.57
2022-08-17T21:10:24.407Z,10.27
2022-08-17T21:13:15.520Z,10.35
2022-08-17T21:15:52.458Z,10.55
2022-08-17T21:19:30.966Z,9.75
2022-08-17T21:22:45.531Z,9.80
2022-08-17T21:25:32.691Z,9.88
2022-08-17T21:28:23.213Z,9.57
2022-08-17T21:31:09.033Z,10.68
2022-08-17T21:33:40.471Z,10.02
2022-08-17T21:36:13.632Z,10.55
2022-08-17T21:39:02.727Z,10.93
2022-08-17T21:41:55.420Z,10.90
2022-08-17T21:44:36.957Z,11.25
2022-08-17T21:47:30.172Z,10.63
2022-08-17T21:50:22.827Z,11.43
2022-08-17T21:52:54.741Z,9.75
2022-08-17T21:55:30.709Z,10.73
2022-08-17T21:58:13.973Z,11.07
2022-08-17T22:00:45.935Z,10.60
2022-08-17T22:03:26.253Z,11.02
2022-08-17T22:05:53.659Z,10.77
2022-08-17T22:08:26.785Z,13.35
2022-08-17T22:11:02.614Z,11.38
2022-08-17T22:13:30.322Z,11.05
2022-08-17T22:16:28.629Z,12.00
2022-08-17T22:18:58.975Z,10.55
2022-08-17T22:21:26.872Z,11.00
2022-08-17T22:24:16.070Z,11.95
2022-08-17T22:27:11.844Z,10.52
2022-08-17T22:29:59.294Z,10.70
2022-08-17T22:32:38.587Z,10.98
2022-08-17T22:35:33.522Z,10.57
2022-08-17T22:38:18.901Z,11.07
2022-08-17T22:40:49.977Z,11.25
2022-08-17T22:43:26.065Z,10.80
2022-08-17T22:46:00.134Z,10.90
2022-08-17T22:48:30.458Z,11.15
2022-08-17T22:51:14.711Z,10.15
2022-08-17T22:54:14.591Z,10.60
2022-08-17T22:57:19.658Z,10.77
2022-08-17T22:59:55.807Z,10.38
2022-08-17T23:02:35.048Z,9.73
2022-08-17T23:05:13.062Z,11.30
2022-08-17T23:07:42.491Z,10.80
2022-08-17T23:10:12.266Z,10.15
2022-08-17T23:12:40.080Z,11.52
2022-08-17T23:15:19.082Z,10.32
2022-08-17T23:17:46.818Z,10.43
2022-08-17T23:20:16.515Z,11.88
2022-08-17T23:22:52.287Z,11.13
2022-08-17T23:25:28.921Z,10.77
2022-08-17T23:27:58.450Z,11.40
2022-08-17T23:30:31.262Z,11.73
2022-08-17T23:33:02.498Z,10.55
2022-08-17T23:35:40.444Z,11.38
2022-08-17T23:38:13.411Z,11.32
2022-08-17T23:40:41.474Z,10.73
2022-08-17T23:43:23.521Z,11.18
2022-08-17T23:45:54.727Z,11.77
2022-08-17T23:48:27.791Z,11.10
2022-08-17T23:51:08.792Z,12.15
2022-08-17T23:53:40.318Z,11.63
2022-08-17T23:56:11.132Z,10.82
2022-08-17T23:58:44.868Z,11.85
